sensor_id;sensor_type;location;lat;lon;timestamp;P1;durP1;ratioP1;P2;durP2;ratioP2
21233;SDS011;10774;42.178;26.578;2023-08-21T00:01:14;6.93;;;4.65;;
21233;SDS011;10774;42.178;26.578;2023-08-21T00:03:39;6.93;;;5.03;;
21233;SDS011;10774;42.178;26.578;2023-08-21T00:06:05;7.32;;;4.70;;
21233;SDS011;10774;42.178;26.578;2023-08-21T00:08:30;8.40;;;5.05;;
21233;SDS011;10774;42.178;26.578;2023-08-21T00:10:55;6.75;;;4.97;;
21233;SDS011;10774;42.178;26.578;2023-08-21T00:13:21;7.72;;;4.75;;
21233;SDS011;10774;42.178;26.578;2023-08-21T00:15:46;9.77;;;5.18;;
21233;SDS011;10774;42.178;26.578;2023-08-21T00:18:12;9.10;;;5.68;;
21233;SDS011;10774;42.178;26.578;2023-08-21T00:20:37;8.60;;;5.45;;
21233;SDS011;10774;42.178;26.578;2023-08-21T00:23:03;12.70;;;5.88;;
21233;SDS011;10774;42.178;26.578;2023-08-21T00:25:28;8.20;;;5.43;;
21233;SDS011;10774;42.178;26.578;2023-08-21T00:27:54;8.60;;;5.22;;
21233;SDS011;10774;42.178;26.578;2023-08-21T00:30:19;9.77;;;5.45;;
21233;SDS011;10774;42.178;26.578;2023-08-21T00:32:45;9.80;;;5.82;;
21233;SDS011;10774;42.178;26.578;2023-08-21T00:35:10;6.95;;;5.63;;
21233;SDS011;10774;42.178;26.578;2023-08-21T00:37:36;10.35;;;5.55;;
21233;SDS011;10774;42.178;26.578;2023-08-21T00:40:01;10.25;;;6.03;;
21233;SDS011;10774;42.178;26.578;2023-08-21T00:42:27;7.70;;;6.18;;
21233;SDS011;10774;42.178;26.578;2023-08-21T00:44:52;11.68;;;6.15;;
21233;SDS011;10774;42.178;26.578;2023-08-21T00:47:18;10.73;;;6.20;;
21233;SDS011;10774;42.178;26.578;2023-08-21T00:49:44;10.85;;;5.70;;
21233;SDS011;10774;42.178;26.578;2023-08-21T00:52:10;13.15;;;6.47;;
21233;SDS011;10774;42.178;26.578;2023-08-21T00:54:37;10.00;;;6.93;;
21233;SDS011;10774;42.178;26.578;2023-08-21T00:57:03;9.55;;;7.60;;
21233;SDS011;10774;42.178;26.578;2023-08-21T00:59:29;10.25;;;7.50;;
21233;SDS011;10774;42.178;26.578;2023-08-21T01:01:55;15.30;;;8.02;;
21233;SDS011;10774;42.178;26.578;2023-08-21T01:04:21;12.90;;;7.35;;
21233;SDS011;10774;42.178;26.578;2023-08-21T01:06:48;9.48;;;6.80;;
21233;SDS011;10774;42.178;26.578;2023-08-21T01:17:13;13.27;;;7.50;;
21233;SDS011;10774;42.178;26.578;2023-08-21T01:19:46;11.85;;;7.95;;
21233;SDS011;10774;42.178;26.578;2023-08-21T01:22:13;11.82;;;7.72;;
21233;SDS011;10774;42.178;26.578;2023-08-21T01:24:39;15.45;;;7.60;;
21233;SDS011;10774;42.178;26.578;2023-08-21T01:27:05;14.50;;;7.95;;
21233;SDS011;10774;42.178;26.578;2023-08-21T01:29:30;15.27;;;8.05;;
21233;SDS011;10774;42.178;26.578;2023-08-21T01:34:40;10.63;;;7.20;;
21233;SDS011;10774;42.178;26.578;2023-08-21T01:37:07;9.38;;;7.07;;
21233;SDS011;10774;42.178;26.578;2023-08-21T01:39:33;9.57;;;7.18;;
21233;SDS011;10774;42.178;26.578;2023-08-21T01:41:59;12.43;;;7.50;;
21233;SDS011;10774;42.178;26.578;2023-08-21T01:44:24;11.65;;;7.78;;
21233;SDS011;10774;42.178;26.578;2023-08-21T01:46:51;9.35;;;6.93;;
21233;SDS011;10774;42.178;26.578;2023-08-21T01:49:17;15.32;;;7.18;;
21233;SDS011;10774;42.178;26.578;2023-08-21T01:51:44;10.07;;;6.55;;
21233;SDS011;10774;42.178;26.578;2023-08-21T01:54:09;9.00;;;5.97;;
21233;SDS011;10774;42.178;26.578;2023-08-21T01:56:35;7.80;;;5.82;;
21233;SDS011;10774;42.178;26.578;2023-08-21T01:59:01;12.85;;;6.13;;
21233;SDS011;10774;42.178;26.578;2023-08-21T02:01:27;7.80;;;6.82;;
21233;SDS011;10774;42.178;26.578;2023-08-21T02:03:52;8.07;;;6.38;;
21233;SDS011;10774;42.178;26.578;2023-08-21T02:06:18;10.88;;;6.25;;
21233;SDS011;10774;42.178;26.578;2023-08-21T02:08:43;9.55;;;6.43;;
21233;SDS011;10774;42.178;26.578;2023-08-21T02:11:09;10.18;;;5.97;;
21233;SDS011;10774;42.178;26.578;2023-08-21T02:13:34;10.18;;;6.55;;
21233;SDS011;10774;42.178;26.578;2023-08-21T02:15:59;9.88;;;6.55;;
21233;SDS011;10774;42.178;26.578;2023-08-21T02:18:25;11.75;;;6.65;;
21233;SDS011;10774;42.178;26.578;2023-08-21T02:20:50;8.82;;;6.40;;
21233;SDS011;10774;42.178;26.578;2023-08-21T02:23:16;9.40;;;6.43;;
21233;SDS011;10774;42.178;26.578;2023-08-21T02:25:41;13.75;;;6.63;;
21233;SDS011;10774;42.178;26.578;2023-08-21T02:28:07;13.77;;;6.57;;
21233;SDS011;10774;42.178;26.578;2023-08-21T02:30:32;10.48;;;6.50;;
21233;SDS011;10774;42.178;26.578;2023-08-21T02:32:58;15.38;;;6.70;;
21233;SDS011;10774;42.178;26.578;2023-08-21T02:35:24;11.85;;;6.45;;
21233;SDS011;10774;42.178;26.578;2023-08-21T02:37:49;9.82;;;6.70;;
21233;SDS011;10774;42.178;26.578;2023-08-21T02:40:15;13.18;;;6.70;;
21233;SDS011;10774;42.178;26.578;2023-08-21T02:42:41;9.30;;;6.75;;
21233;SDS011;10774;42.178;26.578;2023-08-21T02:45:06;10.38;;;7.40;;
21233;SDS011;10774;42.178;26.578;2023-08-21T02:47:36;9.40;;;6.20;;
21233;SDS011;10774;42.178;26.578;2023-08-21T02:50:06;12.75;;;6.75;;
21233;SDS011;10774;42.178;26.578;2023-08-21T02:52:32;9.05;;;5.95;;
21233;SDS011;10774;42.178;26.578;2023-08-21T02:54:58;12.68;;;6.85;;
21233;SDS011;10774;42.178;26.578;2023-08-21T02:57:25;12.48;;;6.55;;
21233;SDS011;10774;42.178;26.578;2023-08-21T02:59:51;7.07;;;6.18;;
21233;SDS011;10774;42.178;26.578;2023-08-21T03:02:17;10.20;;;6.20;;
21233;SDS011;10774;42.178;26.578;2023-08-21T03:04:43;10.23;;;6.38;;
21233;SDS011;10774;42.178;26.578;2023-08-21T03:07:09;8.30;;;5.95;;
21233;SDS011;10774;42.178;26.578;2023-08-21T03:09:36;7.78;;;6.53;;
21233;SDS011;10774;42.178;26.578;2023-08-21T03:12:02;9.82;;;6.70;;
21233;SDS011;10774;42.178;26.578;2023-08-21T03:14:28;8.95;;;6.38;;
21233;SDS011;10774;42.178;26.578;2023-08-21T03:16:53;8.38;;;6.43;;
21233;SDS011;10774;42.178;26.578;2023-08-21T03:19:19;13.98;;;6.97;;
21233;SDS011;10774;42.178;26.578;2023-08-21T03:21:44;10.30;;;6.57;;
21233;SDS011;10774;42.178;26.578;2023-08-21T03:24:09;11.77;;;7.43;;
21233;SDS011;10774;42.178;26.578;2023-08-21T03:26:35;8.77;;;6.60;;
21233;SDS011;10774;42.178;26.578;2023-08-21T03:29:00;16.02;;;8.38;;
21233;SDS011;10774;42.178;26.578;2023-08-21T03:31:26;59.15;;;37.67;;
21233;SDS011;10774;42.178;26.578;2023-08-21T03:33:52;27.08;;;18.08;;
21233;SDS011;10774;42.178;26.578;2023-08-21T03:36:17;34.15;;;22.40;;
21233;SDS011;10774;42.178;26.578;2023-08-21T03:38:44;47.38;;;27.85;;
21233;SDS011;10774;42.178;26.578;2023-08-21T03:41:09;19.67;;;14.35;;
21233;SDS011;10774;42.178;26.578;2023-08-21T03:43:35;18.92;;;13.30;;
21233;SDS011;10774;42.178;26.578;2023-08-21T03:46:00;17.10;;;11.70;;
21233;SDS011;10774;42.178;26.578;2023-08-21T03:48:26;20.40;;;12.05;;
21233;SDS011;10774;42.178;26.578;2023-08-21T03:50:51;19.85;;;12.20;;
21233;SDS011;10774;42.178;26.578;2023-08-21T03:53:17;17.58;;;10.65;;
21233;SDS011;10774;42.178;26.578;2023-08-21T03:55:43;16.67;;;11.48;;
21233;SDS011;10774;42.178;26.578;2023-08-21T03:58:08;18.35;;;11.35;;
21233;SDS011;10774;42.178;26.578;2023-08-21T04:00:34;17.77;;;11.43;;
21233;SDS011;10774;42.178;26.578;2023-08-21T04:02:59;20.55;;;11.23;;
21233;SDS011;10774;42.178;26.578;2023-08-21T04:05:25;19.30;;;11.73;;
21233;SDS011;10774;42.178;26.578;2023-08-21T04:07:50;16.92;;;10.93;;
21233;SDS011;10774;42.178;26.578;2023-08-21T04:10:15;19.52;;;10.18;;
21233;SDS011;10774;42.178;26.578;2023-08-21T04:12:41;16.00;;;9.55;;
21233;SDS011;10774;42.178;26.578;2023-08-21T04:15:07;18.02;;;9.95;;
21233;SDS011;10774;42.178;26.578;2023-08-21T04:17:33;18.48;;;9.98;;
21233;SDS011;10774;42.178;26.578;2023-08-21T04:19:58;31.75;;;12.23;;
21233;SDS011;10774;42.178;26.578;2023-08-21T04:22:24;18.95;;;11.23;;
21233;SDS011;10774;42.178;26.578;2023-08-21T04:24:49;21.05;;;10.95;;
21233;SDS011;10774;42.178;26.578;2023-08-21T04:27:15;14.18;;;9.60;;
21233;SDS011;10774;42.178;26.578;2023-08-21T04:29:40;24.40;;;7.78;;
21233;SDS011;10774;42.178;26.578;2023-08-21T04:32:06;15.77;;;6.40;;
21233;SDS011;10774;42.178;26.578;2023-08-21T04:34:34;11.65;;;6.03;;
21233;SDS011;10774;42.178;26.578;2023-08-21T04:37:00;12.80;;;6.18;;
21233;SDS011;10774;42.178;26.578;2023-08-21T04:39:25;10.23;;;6.05;;
21233;SDS011;10774;42.178;26.578;2023-08-21T04:41:51;13.23;;;7.45;;
21233;SDS011;10774;42.178;26.578;2023-08-21T04:44:16;14.30;;;6.57;;
21233;SDS011;10774;42.178;26.578;2023-08-21T04:46:42;12.25;;;6.78;;
21233;SDS011;10774;42.178;26.578;2023-08-21T04:49:08;13.05;;;6.43;;
21233;SDS011;10774;42.178;26.578;2023-08-21T04:51:34;13.32;;;6.70;;
21233;SDS011;10774;42.178;26.578;2023-08-21T04:53:59;10.13;;;6.43;;
21233;SDS011;10774;42.178;26.578;2023-08-21T04:56:25;17.70;;;6.65;;
21233;SDS011;10774;42.178;26.578;2023-08-21T04:58:51;12.48;;;6.13;;
21233;SDS011;10774;42.178;26.578;2023-08-21T05:01:17;8.55;;;5.90;;
21233;SDS011;10774;42.178;26.578;2023-08-21T05:03:43;14.32;;;6.13;;
21233;SDS011;10774;42.178;26.578;2023-08-21T05:06:08;18.92;;;6.72;;
21233;SDS011;10774;42.178;26.578;2023-08-21T05:08:34;17.35;;;6.40;;
21233;SDS011;10774;42.178;26.578;2023-08-21T05:10:59;27.52;;;7.30;;
21233;SDS011;10774;42.178;26.578;2023-08-21T05:13:26;19.35;;;7.28;;
21233;SDS011;10774;42.178;26.578;2023-08-21T05:15:54;15.95;;;6.20;;
21233;SDS011;10774;42.178;26.578;2023-08-21T05:18:21;9.48;;;5.68;;
21233;SDS011;10774;42.178;26.578;2023-08-21T05:20:48;11.27;;;5.57;;
21233;SDS011;10774;42.178;26.578;2023-08-21T05:23:14;17.92;;;6.63;;
21233;SDS011;10774;42.178;26.578;2023-08-21T05:25:39;13.52;;;5.63;;
21233;SDS011;10774;42.178;26.578;2023-08-21T05:28:05;11.43;;;5.55;;
21233;SDS011;10774;42.178;26.578;2023-08-21T05:30:32;26.52;;;6.70;;
21233;SDS011;10774;42.178;26.578;2023-08-21T05:32:57;20.00;;;6.10;;
21233;SDS011;10774;42.178;26.578;2023-08-21T05:35:23;66.20;;;8.80;;
21233;SDS011;10774;42.178;26.578;2023-08-21T05:37:48;21.52;;;6.10;;
21233;SDS011;10774;42.178;26.578;2023-08-21T05:40:14;14.82;;;6.00;;
21233;SDS011;10774;42.178;26.578;2023-08-21T05:42:39;10.73;;;5.20;;
21233;SDS011;10774;42.178;26.578;2023-08-21T05:45:05;9.70;;;5.07;;
21233;SDS011;10774;42.178;26.578;2023-08-21T05:47:31;8.50;;;5.45;;
21233;SDS011;10774;42.178;26.578;2023-08-21T05:49:56;30.88;;;7.05;;
21233;SDS011;10774;42.178;26.578;2023-08-21T05:52:22;32.08;;;7.00;;
21233;SDS011;10774;42.178;26.578;2023-08-21T05:54:48;20.95;;;7.00;;
21233;SDS011;10774;42.178;26.578;2023-08-21T05:57:13;31.38;;;7.43;;
21233;SDS011;10774;42.178;26.578;2023-08-21T05:59:43;25.88;;;5.90;;
21233;SDS011;10774;42.178;26.578;2023-08-21T06:02:12;15.55;;;5.68;;
21233;SDS011;10774;42.178;26.578;2023-08-21T06:04:39;17.45;;;5.47;;
21233;SDS011;10774;42.178;26.578;2023-08-21T06:07:06;15.10;;;5.80;;
21233;SDS011;10774;42.178;26.578;2023-08-21T06:09:32;15.82;;;5.25;;
21233;SDS011;10774;42.178;26.578;2023-08-21T06:11:59;15.23;;;5.00;;
21233;SDS011;10774;42.178;26.578;2023-08-21T06:14:26;13.52;;;4.80;;
21233;SDS011;10774;42.178;26.578;2023-08-21T06:17:00;10.10;;;4.45;;
21233;SDS011;10774;42.178;26.578;2023-08-21T06:19:27;7.00;;;4.25;;
21233;SDS011;10774;42.178;26.578;2023-08-21T06:21:54;7.63;;;4.63;;
21233;SDS011;10774;42.178;26.578;2023-08-21T06:24:23;13.52;;;5.38;;
21233;SDS011;10774;42.178;26.578;2023-08-21T06:26:49;11.63;;;4.32;;
21233;SDS011;10774;42.178;26.578;2023-08-21T06:29:16;7.88;;;4.93;;
21233;SDS011;10774;42.178;26.578;2023-08-21T06:31:42;10.75;;;4.40;;
21233;SDS011;10774;42.178;26.578;2023-08-21T06:34:07;7.88;;;4.32;;
21233;SDS011;10774;42.178;26.578;2023-08-21T06:36:33;9.50;;;4.70;;
21233;SDS011;10774;42.178;26.578;2023-08-21T06:38:58;10.18;;;4.57;;
21233;SDS011;10774;42.178;26.578;2023-08-21T06:41:24;9.18;;;4.85;;
21233;SDS011;10774;42.178;26.578;2023-08-21T06:43:50;17.25;;;5.38;;
21233;SDS011;10774;42.178;26.578;2023-08-21T06:46:15;9.32;;;5.32;;
21233;SDS011;10774;42.178;26.578;2023-08-21T06:48:41;10.70;;;4.47;;
21233;SDS011;10774;42.178;26.578;2023-08-21T06:51:07;8.40;;;5.32;;
21233;SDS011;10774;42.178;26.578;2023-08-21T06:53:33;13.35;;;4.65;;
21233;SDS011;10774;42.178;26.578;2023-08-21T06:55:59;20.77;;;5.63;;
21233;SDS011;10774;42.178;26.578;2023-08-21T06:58:24;8.85;;;5.13;;
21233;SDS011;10774;42.178;26.578;2023-08-21T07:00:50;11.70;;;5.47;;
21233;SDS011;10774;42.178;26.578;2023-08-21T07:03:15;11.85;;;5.25;;
21233;SDS011;10774;42.178;26.578;2023-08-21T07:05:41;8.98;;;5.00;;
21233;SDS011;10774;42.178;26.578;2023-08-21T07:08:06;11.82;;;4.57;;
21233;SDS011;10774;42.178;26.578;2023-08-21T07:10:35;12.52;;;5.03;;
21233;SDS011;10774;42.178;26.578;2023-08-21T07:13:02;19.30;;;5.45;;
21233;SDS011;10774;42.178;26.578;2023-08-21T07:15:28;14.40;;;5.03;;
21233;SDS011;10774;42.178;26.578;2023-08-21T07:17:54;12.45;;;5.05;;
21233;SDS011;10774;42.178;26.578;2023-08-21T07:20:20;14.00;;;4.47;;
21233;SDS011;10774;42.178;26.578;2023-08-21T07:22:46;10.70;;;4.30;;
21233;SDS011;10774;42.178;26.578;2023-08-21T07:25:12;9.32;;;3.92;;
21233;SDS011;10774;42.178;26.578;2023-08-21T07:27:37;10.25;;;4.40;;
21233;SDS011;10774;42.178;26.578;2023-08-21T07:30:03;8.38;;;4.30;;
21233;SDS011;10774;42.178;26.578;2023-08-21T07:32:30;10.77;;;3.95;;
21233;SDS011;10774;42.178;26.578;2023-08-21T07:34:55;9.38;;;3.67;;
21233;SDS011;10774;42.178;26.578;2023-08-21T07:37:20;10.35;;;4.07;;
21233;SDS011;10774;42.178;26.578;2023-08-21T07:39:46;10.70;;;3.95;;
21233;SDS011;10774;42.178;26.578;2023-08-21T07:42:11;5.25;;;3.63;;
21233;SDS011;10774;42.178;26.578;2023-08-21T07:44:38;6.13;;;3.85;;
21233;SDS011;10774;42.178;26.578;2023-08-21T07:47:04;7.88;;;4.10;;
21233;SDS011;10774;42.178;26.578;2023-08-21T07:49:30;12.23;;;3.80;;
21233;SDS011;10774;42.178;26.578;2023-08-21T07:51:56;12.13;;;4.53;;
21233;SDS011;10774;42.178;26.578;2023-08-21T07:54:22;11.68;;;3.97;;
21233;SDS011;10774;42.178;26.578;2023-08-21T07:56:47;9.65;;;4.32;;
21233;SDS011;10774;42.178;26.578;2023-08-21T07:59:12;6.80;;;3.50;;
21233;SDS011;10774;42.178;26.578;2023-08-21T08:01:38;5.57;;;3.70;;
21233;SDS011;10774;42.178;26.578;2023-08-21T08:04:04;10.30;;;3.65;;
21233;SDS011;10774;42.178;26.578;2023-08-21T08:06:29;9.73;;;4.32;;
21233;SDS011;10774;42.178;26.578;2023-08-21T08:08:56;9.95;;;4.00;;
21233;SDS011;10774;42.178;26.578;2023-08-21T08:11:21;10.02;;;3.97;;
21233;SDS011;10774;42.178;26.578;2023-08-21T08:13:47;8.60;;;3.47;;
21233;SDS011;10774;42.178;26.578;2023-08-21T08:16:12;7.70;;;3.53;;
21233;SDS011;10774;42.178;26.578;2023-08-21T08:18:38;7.85;;;3.35;;
21233;SDS011;10774;42.178;26.578;2023-08-21T08:21:03;11.55;;;3.55;;
21233;SDS011;10774;42.178;26.578;2023-08-21T08:23:29;5.75;;;3.33;;
21233;SDS011;10774;42.178;26.578;2023-08-21T08:25:54;11.20;;;3.40;;
21233;SDS011;10774;42.178;26.578;2023-08-21T08:28:19;6.28;;;3.38;;
21233;SDS011;10774;42.178;26.578;2023-08-21T08:30:45;7.97;;;3.00;;
21233;SDS011;10774;42.178;26.578;2023-08-21T08:33:11;7.70;;;3.38;;
21233;SDS011;10774;42.178;26.578;2023-08-21T08:35:36;8.57;;;3.50;;
21233;SDS011;10774;42.178;26.578;2023-08-21T08:38:02;7.57;;;3.92;;
21233;SDS011;10774;42.178;26.578;2023-08-21T08:40:27;7.28;;;3.03;;
21233;SDS011;10774;42.178;26.578;2023-08-21T08:42:53;6.55;;;2.95;;
21233;SDS011;10774;42.178;26.578;2023-08-21T08:45:22;3.78;;;2.72;;
21233;SDS011;10774;42.178;26.578;2023-08-21T08:47:55;8.02;;;3.42;;
21233;SDS011;10774;42.178;26.578;2023-08-21T08:50:23;6.20;;;3.00;;
21233;SDS011;10774;42.178;26.578;2023-08-21T08:52:49;6.43;;;2.97;;
21233;SDS011;10774;42.178;26.578;2023-08-21T08:55:15;8.10;;;3.08;;
21233;SDS011;10774;42.178;26.578;2023-08-21T08:57:40;7.63;;;3.15;;
21233;SDS011;10774;42.178;26.578;2023-08-21T09:00:06;4.45;;;3.00;;
21233;SDS011;10774;42.178;26.578;2023-08-21T09:02:32;4.95;;;2.70;;
21233;SDS011;10774;42.178;26.578;2023-08-21T09:04:57;12.18;;;2.95;;
21233;SDS011;10774;42.178;26.578;2023-08-21T09:07:23;6.90;;;2.80;;
21233;SDS011;10774;42.178;26.578;2023-08-21T09:09:50;9.75;;;2.90;;
21233;SDS011;10774;42.178;26.578;2023-08-21T09:12:18;6.60;;;2.40;;
21233;SDS011;10774;42.178;26.578;2023-08-21T09:14:44;7.80;;;2.90;;
21233;SDS011;10774;42.178;26.578;2023-08-21T09:17:11;14.32;;;3.15;;
21233;SDS011;10774;42.178;26.578;2023-08-21T09:19:37;8.18;;;3.30;;
21233;SDS011;10774;42.178;26.578;2023-08-21T09:22:09;6.95;;;2.80;;
21233;SDS011;10774;42.178;26.578;2023-08-21T09:24:38;7.45;;;3.25;;
21233;SDS011;10774;42.178;26.578;2023-08-21T09:27:24;5.10;;;2.58;;
21233;SDS011;10774;42.178;26.578;2023-08-21T09:29:49;11.10;;;2.40;;
21233;SDS011;10774;42.178;26.578;2023-08-21T09:32:15;7.82;;;1.95;;
21233;SDS011;10774;42.178;26.578;2023-08-21T09:34:41;9.88;;;2.20;;
21233;SDS011;10774;42.178;26.578;2023-08-21T09:37:06;5.22;;;2.25;;
21233;SDS011;10774;42.178;26.578;2023-08-21T09:39:33;7.13;;;2.22;;
21233;SDS011;10774;42.178;26.578;2023-08-21T09:42:00;6.53;;;2.03;;
21233;SDS011;10774;42.178;26.578;2023-08-21T09:44:27;7.43;;;2.40;;
21233;SDS011;10774;42.178;26.578;2023-08-21T09:46:52;6.40;;;2.20;;
21233;SDS011;10774;42.178;26.578;2023-08-21T09:49:18;12.73;;;4.85;;
21233;SDS011;10774;42.178;26.578;2023-08-21T09:51:46;9.23;;;2.63;;
21233;SDS011;10774;42.178;26.578;2023-08-21T09:54:12;13.93;;;3.65;;
21233;SDS011;10774;42.178;26.578;2023-08-21T09:56:38;10.73;;;2.70;;
21233;SDS011;10774;42.178;26.578;2023-08-21T09:59:04;8.85;;;2.50;;
21233;SDS011;10774;42.178;26.578;2023-08-21T10:01:31;3.65;;;2.10;;
21233;SDS011;10774;42.178;26.578;2023-08-21T10:04:00;9.05;;;2.58;;
21233;SDS011;10774;42.178;26.578;2023-08-21T10:06:28;7.93;;;2.47;;
21233;SDS011;10774;42.178;26.578;2023-08-21T10:08:55;10.85;;;2.67;;
21233;SDS011;10774;42.178;26.578;2023-08-21T10:11:21;10.15;;;3.00;;
21233;SDS011;10774;42.178;26.578;2023-08-21T10:13:47;6.50;;;3.05;;
21233;SDS011;10774;42.178;26.578;2023-08-21T10:16:16;9.07;;;3.00;;
21233;SDS011;10774;42.178;26.578;2023-08-21T10:18:43;8.68;;;2.78;;
21233;SDS011;10774;42.178;26.578;2023-08-21T10:21:17;13.90;;;3.13;;
21233;SDS011;10774;42.178;26.578;2023-08-21T10:23:46;8.45;;;2.63;;
21233;SDS011;10774;42.178;26.578;2023-08-21T10:26:20;10.95;;;2.58;;
21233;SDS011;10774;42.178;26.578;2023-08-21T10:28:51;12.10;;;3.10;;
21233;SDS011;10774;42.178;26.578;2023-08-21T10:31:29;10.57;;;3.10;;
21233;SDS011;10774;42.178;26.578;2023-08-21T10:34:04;5.05;;;2.50;;
21233;SDS011;10774;42.178;26.578;2023-08-21T10:41:55;5.40;;;2.40;;
21233;SDS011;10774;42.178;26.578;2023-08-21T10:44:37;6.30;;;2.53;;
21233;SDS011;10774;42.178;26.578;2023-08-21T10:49:53;11.50;;;3.65;;
21233;SDS011;10774;42.178;26.578;2023-08-21T10:52:24;4.80;;;2.47;;
21233;SDS011;10774;42.178;26.578;2023-08-21T10:54:50;6.35;;;2.97;;
21233;SDS011;10774;42.178;26.578;2023-08-21T10:57:21;5.43;;;2.72;;
21233;SDS011;10774;42.178;26.578;2023-08-21T11:02:24;6.10;;;2.90;;
21233;SDS011;10774;42.178;26.578;2023-08-21T11:04:51;7.00;;;3.20;;
21233;SDS011;10774;42.178;26.578;2023-08-21T11:07:17;7.13;;;3.20;;
21233;SDS011;10774;42.178;26.578;2023-08-21T11:09:43;4.38;;;2.40;;
21233;SDS011;10774;42.178;26.578;2023-08-21T11:12:10;6.95;;;2.90;;
21233;SDS011;10774;42.178;26.578;2023-08-21T11:14:38;7.32;;;2.45;;
21233;SDS011;10774;42.178;26.578;2023-08-21T11:17:04;5.22;;;2.40;;
21233;SDS011;10774;42.178;26.578;2023-08-21T11:19:31;7.03;;;2.75;;
21233;SDS011;10774;42.178;26.578;2023-08-21T11:21:57;5.63;;;2.83;;
21233;SDS011;10774;42.178;26.578;2023-08-21T11:24:29;3.67;;;2.53;;
21233;SDS011;10774;42.178;26.578;2023-08-21T11:27:16;5.72;;;2.60;;
21233;SDS011;10774;42.178;26.578;2023-08-21T11:29:47;8.02;;;2.83;;
21233;SDS011;10774;42.178;26.578;2023-08-21T11:32:21;8.50;;;2.55;;
21233;SDS011;10774;42.178;26.578;2023-08-21T11:37:16;8.13;;;2.63;;
21233;SDS011;10774;42.178;26.578;2023-08-21T11:39:44;7.18;;;2.50;;
21233;SDS011;10774;42.178;26.578;2023-08-21T11:42:10;8.57;;;2.45;;
21233;SDS011;10774;42.178;26.578;2023-08-21T11:44:49;8.57;;;2.45;;
21233;SDS011;10774;42.178;26.578;2023-08-21T11:47:17;8.57;;;2.55;;
21233;SDS011;10774;42.178;26.578;2023-08-21T11:49:44;9.82;;;2.15;;
21233;SDS011;10774;42.178;26.578;2023-08-21T11:52:12;7.53;;;2.55;;
21233;SDS011;10774;42.178;26.578;2023-08-21T11:54:39;6.35;;;2.63;;
21233;SDS011;10774;42.178;26.578;2023-08-21T11:57:09;6.28;;;2.33;;
21233;SDS011;10774;42.178;26.578;2023-08-21T11:59:38;4.78;;;2.33;;
21233;SDS011;10774;42.178;26.578;2023-08-21T12:02:17;7.18;;;2.28;;
21233;SDS011;10774;42.178;26.578;2023-08-21T12:04:44;8.30;;;2.17;;
21233;SDS011;10774;42.178;26.578;2023-08-21T12:07:09;4.75;;;1.90;;
21233;SDS011;10774;42.178;26.578;2023-08-21T12:09:37;4.95;;;2.08;;
21233;SDS011;10774;42.178;26.578;2023-08-21T12:12:02;8.07;;;2.10;;
21233;SDS011;10774;42.178;26.578;2023-08-21T12:14:28;16.33;;;3.17;;
21233;SDS011;10774;42.178;26.578;2023-08-21T12:16:54;6.55;;;2.47;;
21233;SDS011;10774;42.178;26.578;2023-08-21T12:19:22;8.35;;;2.50;;
21233;SDS011;10774;42.178;26.578;2023-08-21T12:21:48;11.45;;;2.40;;
21233;SDS011;10774;42.178;26.578;2023-08-21T12:24:14;11.68;;;2.42;;
21233;SDS011;10774;42.178;26.578;2023-08-21T12:26:39;4.35;;;2.40;;
21233;SDS011;10774;42.178;26.578;2023-08-21T12:29:05;11.18;;;2.30;;
21233;SDS011;10774;42.178;26.578;2023-08-21T12:31:32;12.55;;;2.83;;
21233;SDS011;10774;42.178;26.578;2023-08-21T12:33:57;8.98;;;2.63;;
21233;SDS011;10774;42.178;26.578;2023-08-21T12:36:23;8.55;;;3.00;;
21233;SDS011;10774;42.178;26.578;2023-08-21T12:38:48;7.45;;;2.47;;
21233;SDS011;10774;42.178;26.578;2023-08-21T12:41:14;11.57;;;2.85;;
21233;SDS011;10774;42.178;26.578;2023-08-21T12:43:39;7.75;;;2.40;;
21233;SDS011;10774;42.178;26.578;2023-08-21T12:46:05;7.78;;;2.45;;
21233;SDS011;10774;42.178;26.578;2023-08-21T12:48:30;8.45;;;2.30;;
21233;SDS011;10774;42.178;26.578;2023-08-21T12:50:56;6.63;;;2.30;;
21233;SDS011;10774;42.178;26.578;2023-08-21T12:53:21;11.20;;;2.42;;
21233;SDS011;10774;42.178;26.578;2023-08-21T12:55:48;7.35;;;2.45;;
21233;SDS011;10774;42.178;26.578;2023-08-21T12:58:13;8.38;;;2.85;;
21233;SDS011;10774;42.178;26.578;2023-08-21T13:00:39;6.13;;;2.55;;
21233;SDS011;10774;42.178;26.578;2023-08-21T13:03:05;11.68;;;2.70;;
21233;SDS011;10774;42.178;26.578;2023-08-21T13:05:30;10.05;;;2.97;;
21233;SDS011;10774;42.178;26.578;2023-08-21T13:07:56;6.50;;;2.53;;
21233;SDS011;10774;42.178;26.578;2023-08-21T13:10:21;7.57;;;2.53;;
21233;SDS011;10774;42.178;26.578;2023-08-21T13:12:47;7.45;;;2.70;;
21233;SDS011;10774;42.178;26.578;2023-08-21T13:15:14;7.55;;;2.90;;
21233;SDS011;10774;42.178;26.578;2023-08-21T13:17:39;6.88;;;2.60;;
21233;SDS011;10774;42.178;26.578;2023-08-21T13:20:05;10.68;;;2.92;;
21233;SDS011;10774;42.178;26.578;2023-08-21T13:22:44;7.70;;;2.65;;
21233;SDS011;10774;42.178;26.578;2023-08-21T13:25:11;8.95;;;2.70;;
21233;SDS011;10774;42.178;26.578;2023-08-21T13:27:36;7.28;;;2.40;;
21233;SDS011;10774;42.178;26.578;2023-08-21T13:30:02;11.02;;;2.63;;
21233;SDS011;10774;42.178;26.578;2023-08-21T13:32:29;5.22;;;2.50;;
21233;SDS011;10774;42.178;26.578;2023-08-21T13:34:54;12.02;;;3.35;;
21233;SDS011;10774;42.178;26.578;2023-08-21T13:37:20;14.48;;;3.58;;
21233;SDS011;10774;42.178;26.578;2023-08-21T13:39:47;7.43;;;3.35;;
21233;SDS011;10774;42.178;26.578;2023-08-21T13:42:12;10.48;;;3.33;;
21233;SDS011;10774;42.178;26.578;2023-08-21T13:44:38;9.63;;;2.90;;
21233;SDS011;10774;42.178;26.578;2023-08-21T13:47:03;7.38;;;3.03;;
21233;SDS011;10774;42.178;26.578;2023-08-21T13:49:28;6.45;;;3.05;;
21233;SDS011;10774;42.178;26.578;2023-08-21T13:51:54;5.53;;;3.00;;
21233;SDS011;10774;42.178;26.578;2023-08-21T13:54:20;8.15;;;3.15;;
21233;SDS011;10774;42.178;26.578;2023-08-21T13:56:46;8.65;;;2.83;;
21233;SDS011;10774;42.178;26.578;2023-08-21T13:59:11;6.95;;;2.25;;
21233;SDS011;10774;42.178;26.578;2023-08-21T14:01:36;7.22;;;3.00;;
21233;SDS011;10774;42.178;26.578;2023-08-21T14:04:02;12.48;;;3.67;;
21233;SDS011;10774;42.178;26.578;2023-08-21T14:06:28;9.27;;;2.58;;
21233;SDS011;10774;42.178;26.578;2023-08-21T14:08:54;7.68;;;3.15;;
21233;SDS011;10774;42.178;26.578;2023-08-21T14:11:20;9.02;;;3.28;;
21233;SDS011;10774;42.178;26.578;2023-08-21T14:13:45;5.10;;;3.00;;
21233;SDS011;10774;42.178;26.578;2023-08-21T14:16:10;9.52;;;3.28;;
21233;SDS011;10774;42.178;26.578;2023-08-21T14:18:36;13.07;;;3.42;;
21233;SDS011;10774;42.178;26.578;2023-08-21T14:21:01;13.40;;;3.05;;
21233;SDS011;10774;42.178;26.578;2023-08-21T14:23:27;4.45;;;2.50;;
21233;SDS011;10774;42.178;26.578;2023-08-21T14:25:53;7.43;;;2.90;;
21233;SDS011;10774;42.178;26.578;2023-08-21T14:28:18;8.90;;;3.15;;
21233;SDS011;10774;42.178;26.578;2023-08-21T14:30:43;7.80;;;2.80;;
21233;SDS011;10774;42.178;26.578;2023-08-21T14:33:10;5.63;;;2.80;;
21233;SDS011;10774;42.178;26.578;2023-08-21T14:35:36;6.22;;;2.63;;
21233;SDS011;10774;42.178;26.578;2023-08-21T14:38:02;11.70;;;3.33;;
21233;SDS011;10774;42.178;26.578;2023-08-21T14:40:28;12.82;;;3.22;;
21233;SDS011;10774;42.178;26.578;2023-08-21T14:42:53;7.70;;;3.50;;
21233;SDS011;10774;42.178;26.578;2023-08-21T14:45:18;10.48;;;2.90;;
21233;SDS011;10774;42.178;26.578;2023-08-21T14:47:44;11.75;;;3.85;;